sensor_id;sensor_type;location;lat;lon;timestamp;pressure;altitude;pressure_sealevel;temperature;humidity
76434;BME280;65265;53.200;6.080;2023-07-29T00:04:38;100649.97;;;18.49;100.00
76434;BME280;65265;53.200;6.080;2023-07-29T00:09:30;100639.59;;;18.46;100.00
76434;BME280;65265;53.200;6.080;2023-07-29T00:14:23;100633.56;;;18.41;100.00
76434;BME280;65265;53.200;6.080;2023-07-29T00:19:14;100631.81;;;18.40;100.00
76434;BME280;65265;53.200;6.080;2023-07-29T00:24:06;100625.75;;;18.33;100.00
76434;BME280;65265;53.200;6.080;2023-07-29T00:28:57;100629.19;;;18.31;100.00
76434;BME280;65265;53.200;6.080;2023-07-29T00:33:50;100617.03;;;18.25;100.00
76434;BME280;65265;53.200;6.080;2023-07-29T00:38:43;100615.31;;;18.24;100.00
76434;BME280;65265;53.200;6.080;2023-07-29T00:43:34;100621.31;;;18.22;100.00
76434;BME280;65265;53.200;6.080;2023-07-29T00:48:26;100617.00;;;18.19;100.00
76434;BME280;65265;53.200;6.080;2023-07-29T00:53:19;100622.16;;;18.16;100.00
76434;BME280;65265;53.200;6.080;2023-07-29T00:58:10;100608.31;;;18.13;100.00
76434;BME280;65265;53.200;6.080;2023-07-29T01:03:02;100607.47;;;18.14;100.00
76434;BME280;65265;53.200;6.080;2023-07-29T01:07:57;100604.00;;;18.12;100.00
76434;BME280;65265;53.200;6.080;2023-07-29T01:12:57;100587.63;;;18.13;100.00
76434;BME280;65265;53.200;6.080;2023-07-29T01:17:55;100594.50;;;18.09;100.00
76434;BME280;65265;53.200;6.080;2023-07-29T01:22:48;100599.69;;;18.08;100.00
76434;BME280;65265;53.200;6.080;2023-07-29T01:27:41;100596.22;;;18.07;100.00
76434;BME280;65265;53.200;6.080;2023-07-29T01:32:37;100584.13;;;18.05;100.00
76434;BME280;65265;53.200;6.080;2023-07-29T01:37:32;100587.56;;;18.01;100.00
76434;BME280;65265;53.200;6.080;2023-07-29T01:42:25;100586.69;;;17.96;100.00
76434;BME280;65265;53.200;6.080;2023-07-29T01:47:18;100592.69;;;17.96;100.00
76434;BME280;65265;53.200;6.080;2023-07-29T01:52:10;100579.78;;;17.95;100.00
76434;BME280;65265;53.200;6.080;2023-07-29T01:57:02;100578.00;;;17.94;100.00
76434;BME280;65265;53.200;6.080;2023-07-29T02:01:53;100578.84;;;17.90;100.00
76434;BME280;65265;53.200;6.080;2023-07-29T02:06:46;100572.81;;;17.88;100.00
76434;BME280;65265;53.200;6.080;2023-07-29T02:11:37;100577.97;;;17.86;100.00
76434;BME280;65265;53.200;6.080;2023-07-29T02:16:29;100577.09;;;17.84;100.00
76434;BME280;65265;53.200;6.080;2023-07-29T02:21:20;100571.91;;;17.81;100.00
76434;BME280;65265;53.200;6.080;2023-07-29T02:26:13;100571.88;;;17.77;100.00
76434;BME280;65265;53.200;6.080;2023-07-29T02:31:15;100564.94;;;17.71;100.00
76434;BME280;65265;53.200;6.080;2023-07-29T02:36:07;100566.63;;;17.62;100.00
76434;BME280;65265;53.200;6.080;2023-07-29T02:40:58;100558.81;;;17.56;100.00
76434;BME280;65265;53.200;6.080;2023-07-29T02:45:51;100564.78;;;17.49;100.00
76434;BME280;65265;53.200;6.080;2023-07-29T02:50:42;100562.16;;;17.43;100.00
76434;BME280;65265;53.200;6.080;2023-07-29T02:55:34;100562.03;;;17.34;100.00
76434;BME280;65265;53.200;6.080;2023-07-29T03:00:26;100565.47;;;17.30;100.00
76434;BME280;65265;53.200;6.080;2023-07-29T03:05:19;100549.91;;;17.22;100.00
76434;BME280;65265;53.200;6.080;2023-07-29T03:10:10;100546.38;;;17.16;100.00
76434;BME280;65265;53.200;6.080;2023-07-29T03:15:03;100545.47;;;17.09;100.00
76434;BME280;65265;53.200;6.080;2023-07-29T03:19:54;100546.31;;;17.07;100.00
76434;BME280;65265;53.200;6.080;2023-07-29T03:24:47;100546.25;;;17.01;100.00
76434;BME280;65265;53.200;6.080;2023-07-29T03:29:38;100549.66;;;16.98;100.00
76434;BME280;65265;53.200;6.080;2023-07-29T03:34:30;100540.13;;;16.93;100.00
76434;BME280;65265;53.200;6.080;2023-07-29T03:39:22;100542.69;;;16.87;100.00
76434;BME280;65265;53.200;6.080;2023-07-29T03:44:15;100551.22;;;16.80;100.00
76434;BME280;65265;53.200;6.080;2023-07-29T03:49:07;100538.31;;;16.79;100.00
76434;BME280;65265;53.200;6.080;2023-07-29T03:53:58;100533.97;;;16.76;100.00
76434;BME280;65265;53.200;6.080;2023-07-29T03:58:50;100530.47;;;16.73;100.00
76434;BME280;65265;53.200;6.080;2023-07-29T04:03:44;100527.03;;;16.72;100.00
76434;BME280;65265;53.200;6.080;2023-07-29T04:08:36;100520.09;;;16.68;100.00
76434;BME280;65265;53.200;6.080;2023-07-29T04:13:27;100527.81;;;16.65;100.00
76434;BME280;65265;53.200;6.080;2023-07-29T04:18:19;100519.22;;;16.66;100.00
76434;BME280;65265;53.200;6.080;2023-07-29T04:23:12;100518.38;;;16.67;100.00
76434;BME280;65265;53.200;6.080;2023-07-29T04:28:03;100514.09;;;16.68;100.00
76434;BME280;65265;53.200;6.080;2023-07-29T04:32:55;100525.25;;;16.68;100.00
76434;BME280;65265;53.200;6.080;2023-07-29T04:37:48;100520.97;;;16.69;100.00
76434;BME280;65265;53.200;6.080;2023-07-29T04:42:41;100533.06;;;16.73;100.00
76434;BME280;65265;53.200;6.080;2023-07-29T04:47:32;100530.50;;;16.74;100.00
76434;BME280;65265;53.200;6.080;2023-07-29T04:52:24;100530.53;;;16.77;100.00
76434;BME280;65265;53.200;6.080;2023-07-29T04:57:15;100521.91;;;16.78;100.00
76434;BME280;65265;53.200;6.080;2023-07-29T05:02:08;100528.84;;;16.82;100.00
76434;BME280;65265;53.200;6.080;2023-07-29T05:06:59;100522.00;;;16.84;100.00
76434;BME280;65265;53.200;6.080;2023-07-29T05:11:51;100520.28;;;16.86;100.00
76434;BME280;65265;53.200;6.080;2023-07-29T05:16:43;100521.19;;;16.90;100.00
76434;BME280;65265;53.200;6.080;2023-07-29T05:21:36;100517.75;;;16.92;100.00
76434;BME280;65265;53.200;6.080;2023-07-29T05:26:28;100518.66;;;16.94;100.00
76434;BME280;65265;53.200;6.080;2023-07-29T05:31:19;100518.66;;;16.97;100.00
76434;BME280;65265;53.200;6.080;2023-07-29T05:36:11;100525.59;;;17.02;100.00
76434;BME280;65265;53.200;6.080;2023-07-29T05:41:03;100531.66;;;17.07;100.00
76434;BME280;65265;53.200;6.080;2023-07-29T05:45:55;100541.19;;;17.11;100.00
76434;BME280;65265;53.200;6.080;2023-07-29T05:50:46;100545.50;;;17.14;100.00
76434;BME280;65265;53.200;6.080;2023-07-29T05:55:38;100544.69;;;17.18;100.00
76434;BME280;65265;53.200;6.080;2023-07-29T06:00:31;100543.00;;;17.26;100.00
76434;BME280;65265;53.200;6.080;2023-07-29T06:05:22;100543.06;;;17.30;100.00
76434;BME280;65265;53.200;6.080;2023-07-29T06:10:15;100552.66;;;17.39;100.00
76434;BME280;65265;53.200;6.080;2023-07-29T06:15:09;100542.41;;;17.54;100.00
76434;BME280;65265;53.200;6.080;2023-07-29T06:20:02;100545.97;;;17.66;100.00
76434;BME280;65265;53.200;6.080;2023-07-29T06:24:54;100542.56;;;17.75;100.00
76434;BME280;65265;53.200;6.080;2023-07-29T06:29:45;100541.78;;;17.88;100.00
76434;BME280;65265;53.200;6.080;2023-07-29T06:34:37;100548.72;;;17.98;100.00
76434;BME280;65265;53.200;6.080;2023-07-29T06:39:30;100541.03;;;18.16;100.00
76434;BME280;65265;53.200;6.080;2023-07-29T06:44:22;100545.44;;;18.30;100.00
76434;BME280;65265;53.200;6.080;2023-07-29T06:49:13;100538.59;;;18.41;100.00
76434;BME280;65265;53.200;6.080;2023-07-29T06:54:04;100541.22;;;18.50;100.00
76434;BME280;65265;53.200;6.080;2023-07-29T06:58:58;100531.72;;;18.60;100.00
76434;BME280;65265;53.200;6.080;2023-07-29T07:03:49;100538.63;;;18.58;100.00
76434;BME280;65265;53.200;6.080;2023-07-29T07:08:44;100534.31;;;18.54;100.00
76434;BME280;65265;53.200;6.080;2023-07-29T07:13:35;100548.97;;;18.49;100.00
76434;BME280;65265;53.200;6.080;2023-07-29T07:18:28;100540.34;;;18.47;100.00
76434;BME280;65265;53.200;6.080;2023-07-29T07:23:20;100539.50;;;18.57;100.00
76434;BME280;65265;53.200;6.080;2023-07-29T07:28:11;100546.44;;;18.68;100.00
76434;BME280;65265;53.200;6.080;2023-07-29T07:33:03;100550.78;;;18.83;100.00
76434;BME280;65265;53.200;6.080;2023-07-29T07:37:55;100549.91;;;18.88;100.00
76434;BME280;65265;53.200;6.080;2023-07-29T07:42:49;100552.53;;;18.90;100.00
76434;BME280;65265;53.200;6.080;2023-07-29T07:47:40;100551.69;;;19.10;100.00
76434;BME280;65265;53.200;6.080;2023-07-29T07:52:31;100563.81;;;19.37;100.00
76434;BME280;65265;53.200;6.080;2023-07-29T07:57:24;100562.97;;;19.47;100.00
76434;BME280;65265;53.200;6.080;2023-07-29T08:02:16;100565.56;;;19.36;100.00
76434;BME280;65265;53.200;6.080;2023-07-29T08:07:07;100559.50;;;19.49;100.00
76434;BME280;65265;53.200;6.080;2023-07-29T08:11:59;100557.78;;;19.52;100.00
76434;BME280;65265;53.200;6.080;2023-07-29T08:16:51;100554.31;;;19.62;100.00
76434;BME280;65265;53.200;6.080;2023-07-29T08:21:43;100565.53;;;19.63;100.00
76434;BME280;65265;53.200;6.080;2023-07-29T08:26:34;100564.69;;;19.61;100.00
76434;BME280;65265;53.200;6.080;2023-07-29T08:31:26;100563.81;;;19.60;100.00
76434;BME280;65265;53.200;6.080;2023-07-29T08:36:19;100575.06;;;19.74;100.00
76434;BME280;65265;53.200;6.080;2023-07-29T08:41:13;100567.25;;;19.68;100.00
76434;BME280;65265;53.200;6.080;2023-07-29T08:46:05;100566.41;;;19.69;100.00
76434;BME280;65265;53.200;6.080;2023-07-29T08:50:58;100573.31;;;19.70;100.00
76434;BME280;65265;53.200;6.080;2023-07-29T08:55:52;100568.97;;;19.89;100.00
76434;BME280;65265;53.200;6.080;2023-07-29T09:00:46;100562.84;;;20.20;99.02
76434;BME280;65265;53.200;6.080;2023-07-29T09:05:38;100561.06;;;20.32;97.82
76434;BME280;65265;53.200;6.080;2023-07-29T09:10:29;100561.94;;;20.34;96.22
76434;BME280;65265;53.200;6.080;2023-07-29T09:15:28;100559.31;;;20.34;97.91
76434;BME280;65265;53.200;6.080;2023-07-29T09:20:24;100564.50;;;20.43;95.56
76434;BME280;65265;53.200;6.080;2023-07-29T09:25:15;100567.00;;;20.61;95.36
76434;BME280;65265;53.200;6.080;2023-07-29T09:30:15;100565.25;;;20.68;95.32
76434;BME280;65265;53.200;6.080;2023-07-29T09:35:11;100569.53;;;20.73;97.26
76434;BME280;65265;53.200;6.080;2023-07-29T09:40:04;100571.25;;;20.76;95.06
76434;BME280;65265;53.200;6.080;2023-07-29T09:44:55;100574.75;;;20.73;95.32
76434;BME280;65265;53.200;6.080;2023-07-29T09:49:47;100566.06;;;20.71;94.67
76434;BME280;65265;53.200;6.080;2023-07-29T09:54:41;100565.94;;;20.98;95.75
76434;BME280;65265;53.200;6.080;2023-07-29T09:59:34;100562.31;;;21.19;96.41
76434;BME280;65265;53.200;6.080;2023-07-29T10:04:25;100562.16;;;21.38;94.99
76434;BME280;65265;53.200;6.080;2023-07-29T10:09:18;100570.88;;;21.34;90.68
76434;BME280;65265;53.200;6.080;2023-07-29T10:14:13;100568.47;;;21.10;87.67
76434;BME280;65265;53.200;6.080;2023-07-29T10:19:07;100571.13;;;21.03;91.80
76434;BME280;65265;53.200;6.080;2023-07-29T10:24:01;100571.88;;;21.18;90.21
76434;BME280;65265;53.200;6.080;2023-07-29T10:28:55;100559.63;;;21.31;91.70
76434;BME280;65265;53.200;6.080;2023-07-29T10:33:52;100568.19;;;21.45;88.61
76434;BME280;65265;53.200;6.080;2023-07-29T10:38:45;100571.75;;;21.33;88.93
76434;BME280;65265;53.200;6.080;2023-07-29T10:43:37;100577.75;;;21.41;90.47
76434;BME280;65265;53.200;6.080;2023-07-29T10:48:40;100572.38;;;21.59;94.73
76434;BME280;65265;53.200;6.080;2023-07-29T10:53:33;100565.16;;;21.91;95.96
76434;BME280;65265;53.200;6.080;2023-07-29T10:58:24;100562.97;;;22.32;93.17
76434;BME280;65265;53.200;6.080;2023-07-29T11:03:16;100561.56;;;22.75;90.36
76434;BME280;65265;53.200;6.080;2023-07-29T11:08:18;100562.38;;;22.11;86.03
76434;BME280;65265;53.200;6.080;2023-07-29T11:13:11;100568.81;;;21.75;87.65
76434;BME280;65265;53.200;6.080;2023-07-29T11:18:04;100584.72;;;21.36;89.00
76434;BME280;65265;53.200;6.080;2023-07-29T11:22:59;100591.13;;;20.83;96.78
76434;BME280;65265;53.200;6.080;2023-07-29T11:27:52;100598.97;;;20.78;94.64
76434;BME280;65265;53.200;6.080;2023-07-29T11:32:46;100612.09;;;20.50;93.74
76434;BME280;65265;53.200;6.080;2023-07-29T11:37:38;100629.53;;;19.56;96.80
76434;BME280;65265;53.200;6.080;2023-07-29T11:42:31;100618.31;;;19.28;100.00
76434;BME280;65265;53.200;6.080;2023-07-29T11:47:23;100615.69;;;19.20;100.00
76434;BME280;65265;53.200;6.080;2023-07-29T11:52:16;100602.72;;;19.62;100.00
76434;BME280;65265;53.200;6.080;2023-07-29T11:57:09;100614.75;;;20.30;100.00
76434;BME280;65265;53.200;6.080;2023-07-29T12:02:00;100624.28;;;20.30;97.51
76434;BME280;65265;53.200;6.080;2023-07-29T12:06:52;100612.22;;;20.18;100.00
76434;BME280;65265;53.200;6.080;2023-07-29T12:11:46;100615.66;;;20.11;100.00
76434;BME280;65265;53.200;6.080;2023-07-29T12:16:41;100617.41;;;20.02;99.38
76434;BME280;65265;53.200;6.080;2023-07-29T12:21:32;100621.69;;;20.25;100.00
76434;BME280;65265;53.200;6.080;2023-07-29T12:26:27;100621.69;;;20.36;97.52
76434;BME280;65265;53.200;6.080;2023-07-29T12:31:20;100618.28;;;20.11;96.13
76434;BME280;65265;53.200;6.080;2023-07-29T12:36:12;100629.50;;;20.18;97.88
76434;BME280;65265;53.200;6.080;2023-07-29T12:41:03;100626.03;;;20.23;93.18
76434;BME280;65265;53.200;6.080;2023-07-29T12:45:57;100619.09;;;20.27;94.99
76434;BME280;65265;53.200;6.080;2023-07-29T12:50:50;100625.19;;;20.23;93.38
76434;BME280;65265;53.200;6.080;2023-07-29T12:55:41;100613.91;;;20.25;92.54
76434;BME280;65265;53.200;6.080;2023-07-29T13:00:33;100617.97;;;20.95;95.56
76434;BME280;65265;53.200;6.080;2023-07-29T13:05:24;100620.94;;;21.63;87.53
76434;BME280;65265;53.200;6.080;2023-07-29T13:10:17;100637.47;;;21.55;85.49
76434;BME280;65265;53.200;6.080;2023-07-29T13:15:09;100625.94;;;21.90;82.54
76434;BME280;65265;53.200;6.080;2023-07-29T13:20:00;100615.03;;;22.35;83.68
76434;BME280;65265;53.200;6.080;2023-07-29T13:24:51;100619.91;;;22.65;78.03
76434;BME280;65265;53.200;6.080;2023-07-29T13:29:44;100625.03;;;22.74;81.59
76434;BME280;65265;53.200;6.080;2023-07-29T13:34:37;100628.91;;;23.05;77.55
76434;BME280;65265;53.200;6.080;2023-07-29T13:39:30;100619.31;;;23.08;78.81
76434;BME280;65265;53.200;6.080;2023-07-29T13:44:21;100627.91;;;23.18;75.42
76434;BME280;65265;53.200;6.080;2023-07-29T13:49:14;100624.75;;;23.52;76.21
76434;BME280;65265;53.200;6.080;2023-07-29T13:54:05;100636.25;;;23.41;71.05
76434;BME280;65265;53.200;6.080;2023-07-29T13:58:57;100633.94;;;22.55;73.49
76434;BME280;65265;53.200;6.080;2023-07-29T14:03:49;100633.53;;;22.88;73.19
76434;BME280;65265;53.200;6.080;2023-07-29T14:08:42;100636.75;;;23.06;72.42
76434;BME280;65265;53.200;6.080;2023-07-29T14:13:33;100646.66;;;23.44;71.56
76434;BME280;65265;53.200;6.080;2023-07-29T14:18:25;100644.16;;;23.36;68.94
76434;BME280;65265;53.200;6.080;2023-07-29T14:23:16;100648.22;;;22.95;70.11
76434;BME280;65265;53.200;6.080;2023-07-29T14:28:09;100643.63;;;23.12;73.00
76434;BME280;65265;53.200;6.080;2023-07-29T14:33:01;100650.47;;;23.22;70.77
76434;BME280;65265;53.200;6.080;2023-07-29T14:37:52;100648.00;;;23.10;73.64
76434;BME280;65265;53.200;6.080;2023-07-29T14:42:43;100650.50;;;23.19;74.48
76434;BME280;65265;53.200;6.080;2023-07-29T14:47:36;100650.22;;;23.38;71.20
76434;BME280;65265;53.200;6.080;2023-07-29T14:52:28;100651.38;;;23.74;70.92
76434;BME280;65265;53.200;6.080;2023-07-29T14:57:19;100658.78;;;24.01;67.98
76434;BME280;65265;53.200;6.080;2023-07-29T15:02:11;100645.50;;;23.61;67.56
76434;BME280;65265;53.200;6.080;2023-07-29T15:07:03;100648.78;;;23.74;68.71
76434;BME280;65265;53.200;6.080;2023-07-29T15:11:55;100642.44;;;23.90;68.46
76434;BME280;65265;53.200;6.080;2023-07-29T15:16:46;100633.28;;;23.63;68.39
76434;BME280;65265;53.200;6.080;2023-07-29T15:21:38;100639.44;;;23.58;69.14
76434;BME280;65265;53.200;6.080;2023-07-29T15:26:31;100641.03;;;23.68;69.92
76434;BME280;65265;53.200;6.080;2023-07-29T15:31:22;100652.75;;;23.43;69.25
76434;BME280;65265;53.200;6.080;2023-07-29T15:36:14;100643.78;;;23.00;70.08
76434;BME280;65265;53.200;6.080;2023-07-29T15:41:05;100651.09;;;22.72;71.42
76434;BME280;65265;53.200;6.080;2023-07-29T15:45:58;100639.63;;;22.85;71.83
76434;BME280;65265;53.200;6.080;2023-07-29T15:50:50;100637.16;;;23.40;71.50
76434;BME280;65265;53.200;6.080;2023-07-29T15:55:41;100644.16;;;23.36;66.61
76434;BME280;65265;53.200;6.080;2023-07-29T16:00:32;100631.31;;;23.23;69.38
76434;BME280;65265;53.200;6.080;2023-07-29T16:05:25;100632.25;;;23.17;69.90
76434;BME280;65265;53.200;6.080;2023-07-29T16:10:16;100629.53;;;23.26;69.73
76434;BME280;65265;53.200;6.080;2023-07-29T16:15:09;100631.06;;;23.38;68.81
76434;BME280;65265;53.200;6.080;2023-07-29T16:20:02;100623.94;;;23.49;67.53
76434;BME280;65265;53.200;6.080;2023-07-29T16:24:55;100620.75;;;23.32;67.66
76434;BME280;65265;53.200;6.080;2023-07-29T16:29:47;100616.53;;;23.23;70.26
76434;BME280;65265;53.200;6.080;2023-07-29T16:34:38;100623.16;;;22.82;70.14
76434;BME280;65265;53.200;6.080;2023-07-29T16:39:30;100634.00;;;22.52;70.91
76434;BME280;65265;53.200;6.080;2023-07-29T16:44:22;100613.03;;;22.58;71.11
76434;BME280;65265;53.200;6.080;2023-07-29T16:49:14;100616.88;;;22.96;74.19
76434;BME280;65265;53.200;6.080;2023-07-29T16:54:05;100627.97;;;23.10;75.38
76434;BME280;65265;53.200;6.080;2023-07-29T16:58:57;100625.41;;;23.09;70.85
76434;BME280;65265;53.200;6.080;2023-07-29T17:03:50;100624.84;;;22.86;71.04
76434;BME280;65265;53.200;6.080;2023-07-29T17:08:41;100619.94;;;22.63;73.53
76434;BME280;65265;53.200;6.080;2023-07-29T17:13:33;100622.53;;;22.63;73.79
76434;BME280;65265;53.200;6.080;2023-07-29T17:18:24;100623.72;;;22.40;73.96
76434;BME280;65265;53.200;6.080;2023-07-29T17:23:18;100629.09;;;22.22;74.35
76434;BME280;65265;53.200;6.080;2023-07-29T17:28:09;100621.41;;;22.10;76.96
76434;BME280;65265;53.200;6.080;2023-07-29T17:33:01;100626.59;;;22.08;78.34
76434;BME280;65265;53.200;6.080;2023-07-29T17:37:53;100633.50;;;22.15;76.99
76434;BME280;65265;53.200;6.080;2023-07-29T17:42:46;100633.50;;;22.14;77.23
76434;BME280;65265;53.200;6.080;2023-07-29T17:47:37;100637.78;;;22.21;78.27
76434;BME280;65265;53.200;6.080;2023-07-29T17:52:29;100648.16;;;22.24;75.37
76434;BME280;65265;53.200;6.080;2023-07-29T17:57:20;100652.81;;;21.92;78.22
76434;BME280;65265;53.200;6.080;2023-07-29T18:02:13;100657.38;;;21.60;78.39
76434;BME280;65265;53.200;6.080;2023-07-29T18:07:05;100660.19;;;21.39;80.11
76434;BME280;65265;53.200;6.080;2023-07-29T18:11:56;100659.47;;;21.13;79.40
76434;BME280;65265;53.200;6.080;2023-07-29T18:16:51;100661.34;;;20.87;80.99
76434;BME280;65265;53.200;6.080;2023-07-29T18:21:44;100665.72;;;20.73;82.69
76434;BME280;65265;53.200;6.080;2023-07-29T18:26:35;100670.03;;;20.68;84.50
76434;BME280;65265;53.200;6.080;2023-07-29T18:31:27;100673.53;;;20.58;84.62
76434;BME280;65265;53.200;6.080;2023-07-29T18:36:18;100679.66;;;20.51;84.84
76434;BME280;65265;53.200;6.080;2023-07-29T18:41:11;100672.75;;;20.37;86.77
76434;BME280;65265;53.200;6.080;2023-07-29T18:46:02;100684.00;;;20.37;87.31
76434;BME280;65265;53.200;6.080;2023-07-29T18:50:54;100685.78;;;20.25;85.89
76434;BME280;65265;53.200;6.080;2023-07-29T18:55:45;100684.06;;;20.16;87.29
76434;BME280;65265;53.200;6.080;2023-07-29T19:00:38;100686.66;;;20.07;87.76
76434;BME280;65265;53.200;6.080;2023-07-29T19:05:30;100694.41;;;19.98;87.88
76434;BME280;65265;53.200;6.080;2023-07-29T19:10:21;100690.97;;;19.84;88.59
76434;BME280;65265;53.200;6.080;2023-07-29T19:15:13;100682.28;;;19.70;89.17
76434;BME280;65265;53.200;6.080;2023-07-29T19:20:07;100690.06;;;19.51;90.10
76434;BME280;65265;53.200;6.080;2023-07-29T19:24:59;100689.22;;;19.39;91.11
76434;BME280;65265;53.200;6.080;2023-07-29T19:29:50;100693.50;;;19.23;91.93
76434;BME280;65265;53.200;6.080;2023-07-29T19:34:42;100692.56;;;19.08;93.19
76434;BME280;65265;53.200;6.080;2023-07-29T19:39:35;100695.94;;;18.93;93.66
76434;BME280;65265;53.200;6.080;2023-07-29T19:44:27;100693.31;;;18.78;93.65
76434;BME280;65265;53.200;6.080;2023-07-29T19:49:18;100695.84;;;18.68;94.70
76434;BME280;65265;53.200;6.080;2023-07-29T19:54:10;100700.09;;;18.60;94.91
76434;BME280;65265;53.200;6.080;2023-07-29T19:59:03;100708.69;;;18.51;95.22
76434;BME280;65265;53.200;6.080;2023-07-29T20:03:54;100713.81;;;18.41;96.43
76434;BME280;65265;53.200;6.080;2023-07-29T20:08:46;100712.91;;;18.30;97.69
76434;BME280;65265;53.200;6.080;2023-07-29T20:13:38;100711.94;;;18.23;97.35
76434;BME280;65265;53.200;6.080;2023-07-29T20:18:31;100710.97;;;18.08;98.96
76434;BME280;65265;53.200;6.080;2023-07-29T20:23:22;100709.19;;;18.01;99.20
76434;BME280;65265;53.200;6.080;2023-07-29T20:28:14;100707.38;;;17.91;99.92
76434;BME280;65265;53.200;6.080;2023-07-29T20:33:05;100709.91;;;17.83;100.00
76434;BME280;65265;53.200;6.080;2023-07-29T20:37:59;100702.94;;;17.75;100.00
76434;BME280;65265;53.200;6.080;2023-07-29T20:42:50;100701.97;;;17.64;100.00
76434;BME280;65265;53.200;6.080;2023-07-29T20:47:41;100702.75;;;17.54;100.00
76434;BME280;65265;53.200;6.080;2023-07-29T20:52:33;100699.22;;;17.46;100.00
76434;BME280;65265;53.200;6.080;2023-07-29T20:57:26;100699.97;;;17.36;100.00
76434;BME280;65265;53.200;6.080;2023-07-29T21:02:18;100704.19;;;17.31;100.00
76434;BME280;65265;53.200;6.080;2023-07-29T21:07:09;100699.81;;;17.24;100.00
76434;BME280;65265;53.200;6.080;2023-07-29T21:12:00;100708.38;;;17.18;100.00
76434;BME280;65265;53.200;6.080;2023-07-29T21:16:53;100711.75;;;17.13;100.00
76434;BME280;65265;53.200;6.080;2023-07-29T21:21:45;100709.13;;;17.07;100.00
76434;BME280;65265;53.200;6.080;2023-07-29T21:26:37;100704.75;;;17.01;100.00
76434;BME280;65265;53.200;6.080;2023-07-29T21:31:28;100713.28;;;16.96;100.00
76434;BME280;65265;53.200;6.080;2023-07-29T21:36:21;100702.00;;;16.90;100.00
76434;BME280;65265;53.200;6.080;2023-07-29T21:41:13;100712.31;;;16.88;100.00
76434;BME280;65265;53.200;6.080;2023-07-29T21:46:04;100710.53;;;16.83;100.00
76434;BME280;65265;53.200;6.080;2023-07-29T21:50:58;100715.59;;;16.77;100.00
76434;BME280;65265;53.200;6.080;2023-07-29T21:55:51;100711.22;;;16.71;100.00
76434;BME280;65265;53.200;6.080;2023-07-29T22:00:42;100706.00;;;16.65;100.00
76434;BME280;65265;53.200;6.080;2023-07-29T22:05:34;100715.44;;;16.65;100.00
76434;BME280;65265;53.200;6.080;2023-07-29T22:10:25;100708.53;;;16.62;100.00
76434;BME280;65265;53.200;6.080;2023-07-29T22:15:18;100713.66;;;16.59;100.00
76434;BME280;65265;53.200;6.080;2023-07-29T22:20:11;100720.56;;;16.62;100.00
76434;BME280;65265;53.200;6.080;2023-07-29T22:25:03;100716.28;;;16.62;100.00
76434;BME280;65265;53.200;6.080;2023-07-29T22:29:54;100715.44;;;16.65;100.00
76434;BME280;65265;53.200;6.080;2023-07-29T22:34:48;100715.50;;;16.68;100.00
76434;BME280;65265;53.200;6.080;2023-07-29T22:39:39;100711.19;;;16.68;100.00
76434;BME280;65265;53.200;6.080;2023-07-29T22:44:33;100709.50;;;16.70;100.00
76434;BME280;65265;53.200;6.080;2023-07-29T22:49:24;100711.22;;;16.71;100.00
76434;BME280;65265;53.200;6.080;2023-07-29T22:54:17;100719.88;;;16.73;100.00
76434;BME280;65265;53.200;6.080;2023-07-29T22:59:09;100718.19;;;16.75;100.00
76434;BME280;65265;53.200;6.080;2023-07-29T23:04:00;100729.44;;;16.79;100.00
76434;BME280;65265;53.200;6.080;2023-07-29T23:08:51;100725.94;;;16.77;100.00
76434;BME280;65265;53.200;6.080;2023-07-29T23:13:45;100723.31;;;16.74;100.00
76434;BME280;65265;53.200;6.080;2023-07-29T23:18:36;100727.53;;;16.67;100.00
76434;BME280;65265;53.200;6.080;2023-07-29T23:23:28;100730.09;;;16.64;100.00
76434;BME280;65265;53.200;6.080;2023-07-29T23:28:19;100711.91;;;16.57;100.00
76434;BME280;65265;53.200;6.080;2023-07-29T23:33:12;100718.72;;;16.50;100.00
76434;BME280;65265;53.200;6.080;2023-07-29T23:38:04;100719.50;;;16.45;100.00
76434;BME280;65265;53.200;6.080;2023-07-29T23:42:55;100712.56;;;16.42;100.00
76434;BME280;65265;53.200;6.080;2023-07-29T23:47:47;100712.47;;;16.36;100.00
76434;BME280;65265;53.200;6.080;2023-07-29T23:52:39;100708.97;;;16.34;100.00
76434;BME280;65265;53.200;6.080;2023-07-29T23:57:31;100718.38;;;16.31;100.00
